Archiv-/Tagesdaten

--Timestamp---	Temp	Chill	HIndex	Humid	Dewpt	Wind	HiWind	WindDir	Rain	Barom	        Solar	ET	UV
--------------	----	-----	------	-----	-----	----	------	-------	----	-----	        -----	--	--
20090602 00:05	11.0	11.0	11.0	78	7.3	0	0	45	0.00	1015.818	0	0.000	0
20090602 00:10	10.9	10.9	10.9	79	7.4	0	0	45	0.00	1015.886	0	0.000	0
20090602 00:15	10.9	10.9	10.9	79	7.4	3	5	45	0.00	1015.886	0	0.000	0
20090602 00:20	10.9	10.9	10.9	80	7.6	2	5	45	0.00	1015.919	0	0.000	0
20090602 00:25	10.8	10.8	10.8	80	7.5	0	2	45	0.00	1015.886	0	0.000	0
20090602 00:30	10.8	10.8	10.8	80	7.5	0	0	45	0.00	1015.784	0	0.000	0
20090602 00:35	10.7	10.7	10.7	81	7.6	0	0	45	0.00	1015.716	0	0.000	0
20090602 00:40	10.6	10.6	10.6	81	7.5	0	0	45	0.00	1015.716	0	0.000	0
20090602 00:45	10.4	10.4	10.4	81	7.3	0	0	45	0.00	1015.716	0	0.000	0
20090602 00:50	10.4	10.4	10.4	82	7.4	0	0	45	0.00	1015.716	0	0.000	0
20090602 00:55	10.3	10.3	10.3	82	7.3	0	0	45	0.00	1015.615	0	0.000	0
20090602 01:00	10.3	10.3	10.3	83	7.5	0	0	45	0.00	1015.547	0	0.020	0
20090602 01:05	10.2	10.2	10.2	83	7.5	0	0	45	0.00	1015.716	0	0.000	0
20090602 01:10	10.1	10.1	10.1	83	7.4	0	0	45	0.00	1015.716	0	0.000	0
20090602 01:15	10.1	10.1	10.1	83	7.3	0	0	45	0.00	1015.615	0	0.000	0
20090602 01:20	9.9	9.9	9.9	84	7.4	0	2	45	0.00	1015.615	0	0.000	0
20090602 01:25	9.9	9.9	9.9	84	7.4	0	3	45	0.00	1015.581	0	0.000	0
20090602 01:30	9.9	9.9	9.9	84	7.4	2	5	45	0.00	1015.581	0	0.000	0
20090602 01:35	10.0	10.0	10.0	84	7.4	2	3	45	0.00	1015.513	0	0.000	0
20090602 01:40	10.0	10.0	10.0	84	7.4	0	3	45	0.00	1015.513	0	0.000	0
20090602 01:45	9.9	9.9	9.9	84	7.4	2	5	45	0.00	1015.513	0	0.000	0
20090602 01:50	9.8	9.8	9.8	84	7.3	2	5	45	0.00	1015.479	0	0.000	0
20090602 01:55	9.7	9.7	9.7	84	7.1	2	5	45	0.00	1015.479	0	0.000	0
20090602 02:00	9.7	9.7	9.7	84	7.1	0	3	45	0.00	1015.513	0	0.000	0
20090602 02:05	9.6	9.6	9.6	85	7.2	2	6	45	0.00	1015.411	0	0.000	0
20090602 02:10	9.5	9.5	9.5	85	7.1	3	5	45	0.00	1015.411	0	0.000	0
20090602 02:15	9.4	9.4	9.4	85	7.0	3	6	45	0.00	1015.344	0	0.000	0
20090602 02:20	9.3	9.3	9.3	85	6.9	3	5	45	0.00	1015.344	0	0.000	0
20090602 02:25	9.3	9.3	9.3	85	6.9	2	5	45	0.00	1015.276	0	0.000	0
20090602 02:30	9.3	9.3	9.3	85	6.9	3	5	45	0.00	1015.310	0	0.000	0
20090602 02:35	9.2	9.2	9.2	85	6.8	3	5	45	0.00	1015.310	0	0.000	0
20090602 02:40	9.1	9.1	9.1	85	6.7	3	6	45	0.00	1015.276	0	0.000	0
20090602 02:45	8.9	8.9	8.9	86	6.7	3	6	202	0.00	1015.344	0	0.000	0
20090602 02:50	8.9	8.9	8.9	86	6.7	3	5	202	0.00	1015.310	0	0.000	0
20090602 02:55	8.8	8.8	8.8	86	6.6	3	6	202	0.00	1015.276	0	0.000	0
20090602 03:00	8.8	8.8	8.8	86	6.6	3	6	202	0.00	1015.242	0	0.020	0
20090602 03:05	8.8	8.8	8.8	87	6.7	3	5	202	0.00	1015.141	0	0.000	0
20090602 03:10	8.8	8.8	8.8	87	6.7	0	5	202	0.00	1015.107	0	0.000	0
20090602 03:15	8.8	8.8	8.8	86	6.6	2	5	202	0.00	1015.073	0	0.000	0
20090602 03:20	8.9	8.9	8.9	86	6.7	2	6	202	0.00	1015.039	0	0.000	0
20090602 03:25	8.8	8.8	8.8	86	6.6	3	6	202	0.00	1015.107	0	0.000	0
20090602 03:30	8.8	8.8	8.8	86	6.6	3	6	202	0.00	1015.039	0	0.000	0
20090602 03:35	8.8	8.8	8.8	86	6.6	5	8	202	0.00	1015.073	0	0.000	0
20090602 03:40	8.8	8.8	8.8	86	6.6	5	6	202	0.00	1015.039	0	0.000	0
20090602 03:45	8.8	8.8	8.8	86	6.6	3	6	202	0.00	1015.073	0	0.000	0
20090602 03:50	8.8	8.8	8.8	86	6.6	3	6	202	0.00	1015.141	0	0.000	0
20090602 03:55	8.8	8.8	8.8	86	6.6	5	8	202	0.00	1015.174	0	0.000	0
20090602 04:00	8.8	8.8	8.8	86	6.6	5	8	202	0.00	1015.073	0	0.000	0
20090602 04:05	8.8	8.8	8.8	86	6.6	5	8	202	0.00	1015.005	0	0.000	0
20090602 04:10	8.8	8.8	8.8	86	6.6	5	6	202	0.00	1014.904	0	0.000	0
20090602 04:15	8.8	8.8	8.8	86	6.6	3	8	202	0.00	1014.937	0	0.000	0
20090602 04:20	8.8	8.8	8.8	86	6.6	3	6	202	0.00	1015.039	0	0.000	0
20090602 04:25	8.8	8.8	8.8	86	6.6	2	5	202	0.00	1015.073	0	0.000	0
20090602 04:30	8.8	8.8	8.8	86	6.6	2	3	202	0.00	1015.107	0	0.000	0
20090602 04:35	8.9	8.9	8.9	86	6.7	0	5	202	0.00	1015.141	0	0.000	0
20090602 04:40	8.9	8.9	8.9	86	6.7	2	5	202	0.00	1015.141	0	0.000	0
20090602 04:45	9.0	9.0	9.0	86	6.8	2	6	202	0.00	1015.174	0	0.000	0
20090602 04:50	9.1	9.1	9.1	86	6.8	2	3	202	0.00	1015.141	0	0.000	0
20090602 04:55	9.1	9.1	9.1	85	6.7	2	5	202	0.00	1015.107	0	0.000	0
20090602 05:00	9.2	9.2	9.2	86	6.9	2	5	202	0.00	1014.971	0	0.000	0
20090602 05:05	9.2	9.2	9.2	86	7.0	3	6	202	0.00	1015.039	0	0.000	0
20090602 05:10	9.2	9.2	9.2	86	7.0	3	6	202	0.00	1015.107	0	0.000	0
20090602 05:15	9.2	9.2	9.2	86	7.0	5	6	202	0.00	1015.073	0	0.000	0
20090602 05:20	9.2	9.2	9.2	86	7.0	5	6	202	0.00	1015.039	0	0.000	0
20090602 05:25	9.2	9.2	9.2	87	7.1	3	6	202	0.00	1015.005	0	0.000	0
20090602 05:30	9.2	9.2	9.2	87	7.1	5	6	202	0.00	1014.971	0	0.000	0
20090602 05:35	9.2	9.2	9.2	87	7.2	3	5	202	0.00	1015.039	1	0.000	0
20090602 05:40	9.3	9.3	9.3	87	7.2	2	5	202	0.00	1015.141	5	0.000	0
20090602 05:45	9.3	9.3	9.3	87	7.3	2	5	202	0.00	1015.073	7	0.000	0
20090602 05:50	9.5	9.5	9.5	87	7.4	2	5	202	0.00	1015.073	8	0.000	0
20090602 05:55	9.6	9.6	9.6	86	7.3	2	5	202	0.00	1015.107	10	0.000	0
20090602 06:00	9.7	9.7	9.7	86	7.4	2	5	202	0.00	1014.971	11	0.000	0
20090602 06:05	9.8	9.8	9.8	86	7.5	2	5	202	0.00	1014.937	12	0.000	0
20090602 06:10	9.8	9.8	9.8	86	7.6	0	2	202	0.00	1015.005	14	0.000	0
20090602 06:15	9.9	9.9	9.9	86	7.7	0	5	202	0.00	1015.073	16	0.000	0
20090602 06:20	9.9	9.9	9.9	86	7.7	0	3	202	0.00	1015.073	16	0.000	0
20090602 06:25	10.0	10.0	10.0	85	7.6	2	5	202	0.00	1015.141	22	0.000	0
20090602 06:30	10.1	10.1	10.1	85	7.7	0	5	202	0.00	1015.174	34	0.000	0
20090602 06:35	10.2	10.2	10.2	85	7.8	2	5	202	0.00	1015.174	37	0.000	0
20090602 06:40	10.3	10.3	10.3	85	7.9	0	3	202	0.00	1015.073	39	0.000	0
20090602 06:45	10.4	10.4	10.4	85	8.0	2	5	202	0.00	1015.073	43	0.000	0
20090602 06:50	10.6	10.6	10.6	84	8.0	2	5	202	0.00	1015.073	48	0.000	0
20090602 06:55	10.7	10.7	10.7	84	8.1	2	6	202	0.00	1015.107	109	0.000	0
20090602 07:00	11.0	11.0	11.0	83	8.2	3	6	202	0.00	1015.005	152	0.020	0
20090602 07:05	11.2	11.2	11.2	82	8.3	5	6	225	0.00	1015.174	129	0.000	0
20090602 07:10	11.4	11.4	11.4	82	8.4	3	6	225	0.00	1015.141	107	0.000	0
20090602 07:15	11.6	11.6	11.6	82	8.6	5	8	225	0.00	1015.107	167	0.000	0
20090602 07:20	11.7	11.7	11.7	81	8.6	3	6	225	0.00	1015.141	130	0.000	0
20090602 07:25	11.8	11.8	11.8	81	8.6	3	6	247	0.00	1015.107	115	0.000	0
20090602 07:30	11.9	11.9	11.9	81	8.8	3	6	247	0.00	1014.971	149	0.000	1
20090602 07:35	12.2	12.2	12.2	80	8.8	5	8	247	0.00	1015.039	278	0.000	1
20090602 07:40	12.6	12.6	12.6	79	9.1	5	8	247	0.00	1014.836	350	0.000	1
20090602 07:45	13.1	13.1	13.1	77	9.1	5	10	247	0.00	1014.836	398	0.000	1
20090602 07:50	13.4	13.4	13.4	76	9.2	6	11	292	0.00	1014.836	390	0.000	1
20090602 07:55	13.7	13.7	13.7	75	9.3	5	10	247	0.00	1014.768	345	0.000	1
20090602 08:00	13.8	13.8	13.8	74	9.2	5	8	270	0.00	1014.734	247	0.100	1
20090602 08:05	13.8	13.8	13.8	74	9.2	5	10	292	0.00	1014.971	190	0.000	1
20090602 08:10	13.8	13.8	13.8	73	9.1	5	8	292	0.00	1015.073	197	0.000	1
20090602 08:15	13.7	13.7	13.7	73	9.0	3	6	270	0.00	1015.174	180	0.000	1
20090602 08:20	13.8	13.8	13.8	74	9.2	5	8	270	0.00	1015.141	207	0.000	1
20090602 08:25	13.7	13.7	13.7	73	9.0	6	10	292	0.00	1015.174	168	0.000	1
20090602 08:30	13.7	13.7	13.7	74	9.2	5	10	292	0.00	1015.141	214	0.000	1
20090602 08:35	13.8	13.8	13.8	74	9.2	3	8	292	0.00	1015.242	270	0.000	1
20090602 08:40	13.9	13.9	13.9	73	9.2	3	8	292	0.00	1015.276	266	0.000	1
20090602 08:45	14.0	14.0	14.0	72	9.0	6	10	292	0.00	1015.276	240	0.000	1
20090602 08:50	14.1	14.1	14.1	74	9.5	5	8	270	0.00	1015.174	286	0.000	2
20090602 08:55	14.3	14.3	14.3	71	9.1	3	8	270	0.00	1015.039	315	0.000	2
20090602 09:00	14.4	14.4	14.4	71	9.2	3	8	292	0.00	1015.005	301	0.120	2
20090602 09:05	14.6	14.6	14.6	71	9.4	3	10	292	0.00	1015.378	285	0.000	2
20090602 09:10	14.6	14.6	14.6	71	9.4	2	6	315	0.00	1015.310	232	0.000	2
20090602 09:15	14.6	14.6	14.6	71	9.4	3	8	315	0.00	1015.310	317	0.000	2
20090602 09:20	14.7	14.7	14.7	71	9.5	3	6	315	0.00	1015.276	302	0.000	2
20090602 09:25	14.8	14.8	14.8	70	9.4	5	10	315	0.00	1015.174	302	0.000	2
20090602 09:30	14.9	14.9	14.9	69	9.3	5	8	337	0.00	1015.141	332	0.000	3
20090602 09:35	15.0	15.0	15.0	71	9.8	3	8	315	0.00	1015.107	308	0.000	3
20090602 09:40	15.5	15.5	15.5	71	10.3	3	13	270	0.00	1015.073	671	0.000	3
20090602 09:45	16.1	16.1	16.1	67	9.9	5	11	315	0.00	1014.937	790	0.000	3
20090602 09:50	16.4	16.4	16.4	65	9.8	6	11	315	0.00	1014.937	609	0.000	3
20090602 09:55	16.7	16.7	16.7	65	10.1	6	11	292	0.00	1014.870	599	0.000	3
20090602 10:00	16.8	16.8	16.8	62	9.5	5	11	315	0.00	1014.836	729	0.200	4
20090602 10:05	16.9	16.9	16.9	64	10.1	3	10	270	0.00	1014.904	729	0.000	4
20090602 10:10	17.3	17.3	17.3	61	9.7	5	16	292	0.00	1014.836	710	0.000	4
20090602 10:15	17.6	17.6	17.6	61	9.9	3	11	292	0.00	1014.734	718	0.000	4
20090602 10:20	17.7	17.7	17.7	62	10.3	3	10	315	0.00	1014.666	707	0.000	4
20090602 10:25	17.7	17.7	17.7	62	10.3	6	16	315	0.00	1014.633	711	0.000	4
20090602 10:30	17.8	17.8	17.8	62	10.4	5	10	315	0.00	1014.700	599	0.000	4
20090602 10:35	17.9	17.9	17.9	63	10.7	3	10	315	0.00	1014.666	761	0.000	5
20090602 10:40	18.2	18.2	18.2	60	10.3	3	8	315	0.00	1014.633	778	0.000	5
20090602 10:45	18.4	18.4	18.4	58	10.0	3	11	315	0.00	1014.531	808	0.000	5
20090602 10:50	18.6	18.6	18.6	60	10.7	3	8	0	0.00	1014.463	898	0.000	6
20090602 10:55	18.8	18.8	18.8	59	10.6	3	8	22	0.00	1014.429	617	0.000	3
20090602 11:00	18.4	18.4	18.4	59	10.2	3	6	45	0.00	1014.531	98	0.300	1
20090602 11:05	17.9	17.9	17.9	62	10.6	5	11	292	0.00	1014.633	74	0.000	1
20090602 11:10	17.5	17.5	17.5	63	10.4	6	16	315	0.00	1014.666	121	0.000	2
20090602 11:15	17.3	17.3	17.3	66	10.9	3	10	315	0.00	1014.734	401	0.000	4
20090602 11:20	17.8	17.8	17.8	64	10.9	5	13	292	0.00	1014.599	755	0.000	4
20090602 11:25	18.2	18.2	18.2	63	11.1	2	6	22	0.00	1014.565	350	0.000	4
20090602 11:30	18.3	18.3	18.3	62	10.9	6	18	315	0.00	1014.565	260	0.000	3
20090602 11:35	18.1	18.1	18.1	63	11.0	3	16	292	0.00	1014.531	187	0.000	2
20090602 11:40	17.9	17.9	17.9	65	11.2	2	10	292	0.00	1014.429	178	0.000	4
20090602 11:45	18.1	18.1	18.1	65	11.4	3	13	315	0.00	1014.429	964	0.000	7
20090602 11:50	18.7	18.7	18.7	63	11.5	3	13	315	0.00	1014.226	515	0.000	5
20090602 11:55	18.9	18.9	18.9	62	11.4	11	23	315	0.00	1014.226	545	0.000	6
20090602 12:00	18.9	18.9	18.9	57	10.2	8	19	292	0.00	1014.260	1047	0.220	6
20090602 12:05	18.9	18.9	18.9	61	11.3	6	16	315	0.00	1014.362	382	0.000	6
20090602 12:10	18.8	18.8	18.8	56	9.9	5	21	292	0.00	1014.362	217	0.000	5
20090602 12:15	19.2	19.2	19.2	57	10.5	3	14	0	0.00	1014.192	958	0.000	8
20090602 12:20	19.8	19.8	19.8	54	10.2	10	19	292	0.00	1014.091	1037	0.000	7
20090602 12:25	19.7	19.7	19.7	56	10.7	5	19	315	0.00	1014.091	375	0.000	5
20090602 12:30	19.8	19.8	19.8	51	9.3	3	16	247	0.00	1014.057	385	0.000	5
20090602 12:35	19.7	19.7	19.7	56	10.6	13	23	292	0.00	1014.091	361	0.000	4
20090602 12:40	19.4	19.4	19.4	54	9.8	11	21	292	0.00	1014.091	294	0.000	3
20090602 12:45	19.2	19.2	19.2	57	10.4	8	16	315	0.00	1014.057	260	0.000	3
20090602 12:50	18.8	18.8	18.8	57	10.1	8	16	315	0.00	1014.226	196	0.000	2
20090602 12:55	18.5	18.5	18.5	60	10.6	8	21	292	0.00	1014.192	233	0.000	2
20090602 13:00	18.3	18.3	18.3	60	10.4	11	24	315	0.00	1014.192	304	0.260	3
20090602 13:05	18.3	18.3	18.3	58	9.9	10	21	315	0.00	1014.294	309	0.000	3
20090602 13:10	18.3	18.3	18.3	60	10.4	8	16	315	0.00	1014.260	332	0.000	3
20090602 13:15	18.5	18.5	18.5	61	10.8	5	11	292	0.00	1014.260	363	0.000	4
20090602 13:20	18.7	18.7	18.7	58	10.3	8	19	315	0.00	1014.260	389	0.000	4
20090602 13:25	18.9	18.9	18.9	59	10.7	5	21	315	0.00	1014.159	577	0.000	5
20090602 13:30	19.0	19.0	19.0	58	10.5	8	18	315	0.00	1014.159	385	0.000	4
20090602 13:35	19.0	19.0	19.0	59	10.8	8	21	315	0.00	1014.159	438	0.000	5
20090602 13:40	19.2	19.2	19.2	56	10.2	11	19	315	0.00	1013.989	719	0.000	6
20090602 13:45	19.3	19.3	19.3	55	10.1	13	23	315	0.00	1014.125	399	0.000	5
20090602 13:50	19.1	19.1	19.1	58	10.6	11	21	292	0.00	1014.023	277	0.000	3
20090602 13:55	18.9	18.9	18.9	59	10.7	8	16	292	0.00	1014.125	204	0.000	2
20090602 14:00	18.8	18.8	18.8	58	10.3	6	16	292	0.00	1014.091	213	0.220	2
20090602 14:05	18.8	18.8	18.8	59	10.6	6	14	292	0.00	1014.057	245	0.000	2
20090602 14:10	18.8	18.8	18.8	58	10.3	8	16	315	0.00	1014.091	306	0.000	3
20090602 14:15	18.8	18.8	18.8	60	10.9	10	19	315	0.00	1014.023	361	0.000	4
20090602 14:20	19.0	19.0	19.0	59	10.8	8	18	315	0.00	1013.955	370	0.000	3
20090602 14:25	19.1	19.1	19.1	57	10.4	11	19	315	0.00	1013.989	333	0.000	3
20090602 14:30	19.0	19.0	19.0	59	10.8	11	19	315	0.00	1013.888	368	0.000	4
20090602 14:35	19.1	19.1	19.1	57	10.3	6	16	315	0.00	1013.922	382	0.000	4
20090602 14:40	19.2	19.2	19.2	57	10.4	8	16	315	0.00	1013.955	388	0.000	4
20090602 14:45	19.1	19.1	19.1	58	10.6	8	18	315	0.00	1013.854	334	0.000	3
20090602 14:50	19.2	19.2	19.2	59	11.0	3	13	315	0.00	1013.854	320	0.000	3
20090602 14:55	19.2	19.2	19.2	59	11.0	5	14	315	0.00	1013.752	311	0.000	3
20090602 15:00	19.3	19.3	19.3	59	11.1	3	8	292	0.00	1013.752	398	0.200	4
20090602 15:05	19.6	19.6	19.6	57	10.8	3	10	315	0.00	1013.888	308	0.000	4
20090602 15:10	19.7	19.7	19.7	56	10.7	5	14	315	0.00	1013.718	424	0.000	4
20090602 15:15	19.9	19.9	19.9	57	11.2	6	14	315	0.00	1013.718	610	0.000	5
20090602 15:20	20.4	20.4	20.4	52	10.2	10	18	315	0.00	1013.786	1178	0.000	5
20090602 15:25	20.5	20.5	20.5	52	10.3	8	18	315	0.00	1013.752	510	0.000	4
20090602 15:30	20.3	20.3	20.3	53	10.4	8	16	315	0.00	1013.718	297	0.000	2
20090602 15:35	20.1	20.1	20.1	52	9.9	8	16	315	0.00	1013.718	271	0.000	2
20090602 15:40	19.8	19.8	19.8	52	9.7	8	16	315	0.00	1013.786	227	0.000	2
20090602 15:45	19.7	19.7	19.7	51	9.2	10	19	292	0.00	1013.617	235	0.000	2
20090602 15:50	19.7	19.7	19.7	53	9.8	8	16	292	0.00	1013.752	208	0.000	2
20090602 15:55	19.6	19.6	19.6	57	10.8	2	6	292	0.00	1013.752	160	0.000	1
20090602 16:00	19.4	19.4	19.4	56	10.4	2	5	292	0.00	1013.718	233	0.200	2
20090602 16:05	19.4	19.4	19.4	55	10.1	5	11	292	0.00	1013.617	249	0.000	2
20090602 16:10	19.4	19.4	19.4	57	10.6	3	10	315	0.00	1013.515	203	0.000	2
20090602 16:15	19.4	19.4	19.4	57	10.6	2	5	292	0.00	1013.786	111	0.000	1
20090602 16:20	18.5	18.5	18.5	65	11.8	14	32	22	0.00	1014.192	78	0.000	1
20090602 16:25	17.6	17.6	17.6	69	11.9	3	18	22	0.00	1014.463	73	0.000	0
20090602 16:30	17.1	17.1	17.1	72	12.0	0	3	22	0.20	1014.159	111	0.000	1
20090602 16:35	16.7	16.7	16.7	74	12.0	2	5	45	0.00	1014.023	187	0.000	1
20090602 16:40	16.4	16.4	16.4	72	11.4	2	3	67	0.00	1013.922	180	0.000	1
20090602 16:45	16.3	16.3	16.3	74	11.7	2	5	67	0.00	1013.786	162	0.000	1
20090602 16:50	16.4	16.4	16.4	77	12.3	3	8	67	0.00	1013.786	146	0.000	1
20090602 16:55	16.3	16.3	16.3	75	11.9	3	6	90	0.00	1013.752	175	0.000	1
20090602 17:00	16.4	16.4	16.4	76	12.1	3	6	90	0.00	1013.718	229	0.080	2
20090602 17:05	16.4	16.4	16.4	76	12.2	3	6	90	0.00	1013.718	215	0.000	2
20090602 17:10	16.6	16.6	16.6	73	11.7	5	8	135	0.00	1013.684	244	0.000	2
20090602 17:15	16.8	16.8	16.8	75	12.4	2	6	135	0.00	1013.684	336	0.000	2
20090602 17:20	17.0	17.0	17.0	72	11.9	3	6	135	0.00	1013.515	211	0.000	2
20090602 17:25	17.2	17.2	17.2	72	12.1	0	5	135	0.00	1013.515	465	0.000	2
20090602 17:30	17.7	17.7	17.7	69	11.9	2	5	135	0.20	1013.481	475	0.000	2
20090602 17:35	18.3	18.3	18.3	66	11.8	2	6	135	0.00	1013.346	459	0.000	2
20090602 17:40	18.8	18.8	18.8	64	11.8	2	6	135	0.00	1013.312	474	0.000	2
20090602 17:45	19.1	19.1	19.1	64	12.1	3	6	225	0.00	1013.346	342	0.000	2
20090602 17:50	19.3	19.3	19.3	62	11.9	2	5	225	0.00	1013.177	394	0.000	2
20090602 17:55	19.5	19.5	19.5	61	11.8	2	5	225	0.00	1013.177	231	0.000	1
20090602 18:00	19.5	19.5	19.5	60	11.5	2	6	225	0.00	1013.109	186	0.160	1
20090602 18:05	19.3	19.3	19.3	60	11.3	5	10	225	0.00	1013.007	179	0.000	1
20090602 18:10	18.9	18.9	18.9	59	10.7	5	8	225	0.00	1012.973	170	0.000	1
20090602 18:15	18.7	18.7	18.7	61	11.0	3	6	225	0.00	1012.973	156	0.000	1
20090602 18:20	18.7	18.7	18.7	62	11.2	3	6	247	0.00	1012.906	174	0.000	1
20090602 18:25	18.7	18.7	18.7	62	11.2	2	6	247	0.00	1012.872	179	0.000	1
20090602 18:30	18.7	18.7	18.7	62	11.3	3	6	247	0.00	1012.906	170	0.000	1
20090602 18:35	18.8	18.8	18.8	59	10.6	3	6	247	0.00	1013.007	155	0.000	1
20090602 18:40	18.7	18.7	18.7	60	10.8	3	5	247	0.00	1013.075	120	0.000	1
20090602 18:45	18.7	18.7	18.7	61	11.0	3	6	247	0.00	1013.007	98	0.000	0
20090602 18:50	18.6	18.6	18.6	63	11.4	3	6	247	0.00	1013.007	109	0.000	0
20090602 18:55	18.7	18.7	18.7	63	11.5	5	8	247	0.00	1013.007	229	0.000	1
20090602 19:00	19.0	19.0	19.0	62	11.5	3	6	247	0.00	1012.939	282	0.100	1
20090602 19:05	19.4	19.4	19.4	60	11.4	5	10	247	0.00	1012.601	243	0.000	1
20090602 19:10	19.4	19.4	19.4	62	12.0	5	8	247	0.00	1012.567	119	0.000	0
20090602 19:15	19.4	19.4	19.4	63	12.2	3	5	247	0.00	1012.567	108	0.000	0
20090602 19:20	19.3	19.3	19.3	61	11.6	5	10	247	0.00	1012.499	73	0.000	0
20090602 19:25	19.1	19.1	19.1	63	11.8	5	8	247	0.00	1012.567	71	0.000	0
20090602 19:30	18.8	18.8	18.8	64	11.8	5	8	247	0.00	1012.499	76	0.000	0
20090602 19:35	18.7	18.7	18.7	65	11.9	3	8	247	0.00	1012.567	72	0.000	0
20090602 19:40	18.6	18.6	18.6	65	11.9	3	6	247	0.00	1012.567	48	0.000	0
20090602 19:45	18.4	18.4	18.4	66	12.0	3	5	247	0.00	1012.533	28	0.000	0
20090602 19:50	18.2	18.2	18.2	67	12.0	2	5	337	0.00	1012.499	21	0.000	0
20090602 19:55	18.0	18.0	18.0	68	12.0	3	6	270	0.00	1012.567	19	0.000	0
20090602 20:00	17.8	17.8	17.8	68	11.8	3	6	270	0.00	1012.533	20	0.060	0
20090602 20:05	17.6	17.6	17.6	69	11.9	3	8	270	0.00	1012.499	27	0.000	0
20090602 20:10	17.5	17.5	17.5	70	12.0	5	8	270	0.00	1012.533	26	0.000	0
20090602 20:15	17.4	17.4	17.4	71	12.1	3	8	270	0.20	1012.499	29	0.000	0
20090602 20:20	17.3	17.3	17.3	73	12.4	3	6	270	0.00	1012.635	40	0.000	0
20090602 20:25	17.1	17.1	17.1	76	12.8	3	6	270	0.00	1012.601	51	0.000	0
20090602 20:30	16.9	16.9	16.9	76	12.7	2	6	270	0.00	1012.601	31	0.000	0
20090602 20:35	16.8	16.8	16.8	75	12.3	3	6	270	0.00	1012.567	19	0.000	0
20090602 20:40	16.6	16.6	16.6	76	12.4	3	8	270	0.00	1012.567	12	0.000	0
20090602 20:45	16.6	16.6	16.6	76	12.3	5	6	270	0.00	1012.601	8	0.000	0
20090602 20:50	16.6	16.6	16.6	76	12.3	5	10	270	0.00	1012.635	5	0.000	0
20090602 20:55	16.4	16.4	16.4	73	11.6	6	14	22	0.00	1013.210	5	0.000	0
20090602 21:00	16.3	16.3	16.3	70	10.8	5	18	22	0.00	1013.177	5	0.020	0
20090602 21:05	16.1	16.1	16.1	70	10.6	2	10	292	0.00	1013.177	3	0.000	0
20090602 21:10	15.8	15.8	15.8	72	10.7	0	6	292	0.00	1013.075	0	0.000	0
20090602 21:15	15.6	15.6	15.6	68	9.7	5	10	45	0.00	1012.838	0	0.000	0
20090602 21:20	15.7	15.7	15.7	69	10.0	3	8	67	0.00	1012.872	0	0.000	0
20090602 21:25	15.6	15.6	15.6	73	10.8	0	6	45	0.00	1012.770	0	0.000	0
20090602 21:30	15.4	15.4	15.4	74	10.8	5	10	202	0.00	1012.770	0	0.000	0
20090602 21:35	15.2	15.2	15.2	75	10.8	2	6	202	0.00	1012.804	0	0.000	0
20090602 21:40	15.0	15.0	15.0	75	10.6	5	11	202	0.00	1013.075	0	0.000	0
20090602 21:45	15.0	15.0	15.0	76	10.8	8	16	225	0.00	1013.143	0	0.000	0
20090602 21:50	14.8	14.8	14.8	78	11.0	8	18	202	0.00	1013.177	0	0.000	0
20090602 21:55	14.7	14.7	14.7	79	11.1	6	11	225	0.00	1013.210	0	0.000	0
20090602 22:00	14.5	14.5	14.5	80	11.1	8	13	225	0.00	1013.244	0	0.020	0
20090602 22:05	14.4	14.4	14.4	81	11.2	8	11	225	0.00	1013.041	0	0.000	0
20090602 22:10	14.2	14.2	14.2	82	11.2	6	11	225	0.00	1013.109	0	0.000	0
20090602 22:15	14.2	14.2	14.2	81	11.0	6	10	225	0.00	1013.109	0	0.000	0
20090602 22:20	14.1	14.1	14.1	81	10.9	6	16	225	0.00	1013.109	0	0.000	0
20090602 22:25	14.1	14.1	14.1	81	10.8	6	11	225	0.00	1013.075	0	0.000	0
20090602 22:30	14.1	14.1	14.1	81	10.8	6	14	225	0.00	1013.075	0	0.000	0
20090602 22:35	14.1	14.1	14.1	81	10.8	6	18	225	0.00	1013.041	0	0.000	0
20090602 22:40	14.1	14.1	14.1	81	10.8	8	19	247	0.00	1013.075	0	0.000	0
20090602 22:45	14.1	14.1	14.1	81	10.8	6	11	225	0.00	1013.109	0	0.000	0
20090602 22:50	14.0	14.0	14.0	81	10.8	6	11	247	0.00	1013.075	0	0.000	0
20090602 22:55	13.9	13.9	13.9	81	10.7	6	14	247	0.00	1013.007	0	0.000	0
20090602 23:00	13.9	13.9	13.9	81	10.7	6	11	225	0.00	1013.007	0	0.020	0
20090602 23:05	13.8	13.8	13.8	81	10.6	6	11	225	0.00	1012.939	0	0.000	0
20090602 23:10	13.7	13.7	13.7	82	10.6	6	11	225	0.00	1013.007	0	0.000	0
20090602 23:15	13.6	13.6	13.6	82	10.5	6	11	225	0.00	1012.973	0	0.000	0
20090602 23:20	13.6	13.6	13.6	82	10.5	8	11	225	0.00	1012.973	0	0.000	0
20090602 23:25	13.6	13.6	13.6	83	10.7	6	16	225	0.00	1012.973	0	0.000	0
20090602 23:30	13.6	13.6	13.6	83	10.8	6	11	247	0.00	1012.973	0	0.000	0
20090602 23:35	13.7	13.7	13.7	82	10.6	6	10	247	0.00	1012.906	0	0.000	0
20090602 23:40	13.7	13.7	13.7	82	10.6	5	10	225	0.00	1012.973	0	0.000	0
20090602 23:45	13.6	13.6	13.6	83	10.8	5	10	247	0.00	1012.939	0	0.000	0
20090602 23:50	13.6	13.6	13.6	83	10.7	3	10	247	0.00	1012.872	0	0.000	0
20090602 23:55	13.5	13.5	13.5	82	10.5	3	8	247	0.00	1012.872	0	0.000	0
20090602 24:00	13.4	13.4	13.4	82	10.4	5	10	247	0.00	1012.804	0	0.020	0



Please note the license to use and transfer of this data:
http://creativecommons.org/licenses/by-nc-sa/3.0/deed.en

Bitte beachten sie die Lizenz zur Verwertung und Weitergabe der Daten:
http://creativecommons.org/licenses/by-nc-sa/3.0/deed.de

zurück zur Übersicht der Archivdaten (Monats und Tagesdaten)

Cookies helfen bei der Bereitstellung von Inhalten. Durch die Nutzung dieser Seiten erklärst du dich damit einverstanden, dass Cookies auf deinem Rechner gespeichert werden. Weitere Information